createdAt,value
2018-08-25T00:00:31.473Z,19.37
2018-08-25T00:03:00.935Z,19.37
2018-08-25T00:05:30.373Z,19.36
2018-08-25T00:08:00.860Z,19.24
2018-08-25T00:10:30.154Z,18.99
2018-08-25T00:12:59.603Z,18.88
2018-08-25T00:15:29.210Z,18.86
2018-08-25T00:17:58.493Z,18.88
2018-08-25T00:20:27.832Z,18.80
2018-08-25T00:22:57.214Z,18.79
2018-08-25T00:25:26.615Z,18.71
2018-08-25T00:27:55.906Z,18.82
2018-08-25T00:30:30.304Z,18.78
2018-08-25T00:32:59.538Z,18.79
2018-08-25T00:35:28.900Z,18.78
2018-08-25T00:37:58.332Z,18.76
2018-08-25T00:40:27.941Z,18.80
2018-08-25T00:42:57.255Z,18.80
2018-08-25T00:45:26.847Z,18.68
2018-08-25T00:47:56.346Z,18.73
2018-08-25T00:50:25.755Z,18.77
2018-08-25T00:52:56.180Z,18.77
2018-08-25T00:55:25.547Z,18.78
2018-08-25T00:57:55.020Z,18.68
2018-08-25T01:00:24.483Z,18.64
2018-08-25T01:02:53.988Z,18.64
2018-08-25T01:05:23.703Z,18.64
2018-08-25T01:07:53.090Z,18.48
2018-08-25T01:10:22.566Z,18.38
2018-08-25T01:12:51.909Z,18.40
2018-08-25T01:15:21.411Z,18.35
2018-08-25T01:17:50.814Z,18.34
2018-08-25T01:20:20.427Z,18.40
2018-08-25T01:22:49.926Z,18.36
2018-08-25T01:25:19.429Z,18.25
2018-08-25T01:27:48.830Z,18.28
2018-08-25T01:30:18.234Z,18.22
2018-08-25T01:32:47.534Z,18.21
2018-08-25T01:35:17.143Z,18.21
2018-08-25T01:37:46.464Z,18.21
2018-08-25T01:40:15.943Z,18.12
2018-08-25T01:42:45.345Z,18.00
2018-08-25T01:45:14.826Z,18.07
2018-08-25T01:47:44.143Z,18.08
2018-08-25T01:50:13.550Z,17.89
2018-08-25T01:52:42.952Z,17.74
2018-08-25T01:55:12.457Z,17.62
2018-08-25T01:57:41.924Z,17.66
2018-08-25T02:00:11.361Z,17.59
2018-08-25T02:02:42.973Z,17.59
2018-08-25T02:05:12.305Z,17.58
2018-08-25T02:07:41.788Z,17.60
2018-08-25T02:10:11.326Z,17.60
2018-08-25T02:12:40.728Z,17.70
2018-08-25T02:15:10.014Z,17.67
2018-08-25T02:17:39.351Z,17.64
2018-08-25T02:20:08.934Z,17.63
2018-08-25T02:22:38.336Z,17.65
2018-08-25T02:25:07.737Z,17.64
2018-08-25T02:27:37.221Z,17.59
2018-08-25T02:30:06.766Z,17.52
2018-08-25T02:32:36.251Z,17.38
2018-08-25T02:35:05.960Z,17.45
2018-08-25T02:37:35.362Z,17.40
2018-08-25T02:40:04.759Z,17.44
2018-08-25T02:42:34.778Z,17.50
2018-08-25T02:45:04.489Z,17.34
2018-08-25T02:47:34.607Z,17.34
2018-08-25T02:50:04.010Z,17.29
2018-08-25T02:52:33.514Z,17.30
2018-08-25T02:55:02.793Z,17.37
2018-08-25T02:57:32.216Z,17.39
2018-08-25T03:00:01.619Z,17.33
2018-08-25T03:02:31.092Z,17.40
2018-08-25T03:05:00.627Z,17.24
2018-08-25T03:07:29.871Z,17.19
2018-08-25T03:09:59.635Z,17.30
2018-08-25T03:12:30.106Z,17.35
2018-08-25T03:14:59.566Z,17.38
2018-08-25T03:17:29.014Z,17.46
2018-08-25T03:19:58.678Z,17.36
2018-08-25T03:22:27.963Z,16.91
2018-08-25T03:24:57.583Z,17.10
2018-08-25T03:27:26.986Z,17.30
2018-08-25T03:29:56.491Z,17.44
2018-08-25T03:32:25.962Z,17.34
2018-08-25T03:34:56.523Z,17.39
2018-08-25T03:37:25.993Z,17.14
2018-08-25T03:39:55.484Z,17.11
2018-08-25T03:42:24.832Z,17.29
2018-08-25T03:44:54.290Z,17.22
2018-08-25T03:47:23.670Z,17.29
2018-08-25T03:49:53.035Z,17.08
2018-08-25T03:52:22.295Z,16.87
2018-08-25T03:54:51.943Z,17.00
2018-08-25T03:57:21.448Z,16.90
2018-08-25T03:59:50.912Z,17.09
2018-08-25T04:02:20.183Z,17.06
2018-08-25T04:04:49.441Z,17.16
2018-08-25T04:07:18.950Z,17.29
2018-08-25T04:09:48.573Z,17.24
2018-08-25T04:12:17.872Z,17.06
2018-08-25T04:14:47.374Z,17.03
2018-08-25T04:17:16.764Z,17.08
2018-08-25T04:19:46.135Z,17.06
2018-08-25T04:22:15.593Z,17.07
2018-08-25T04:24:45.074Z,17.07
2018-08-25T04:27:14.542Z,17.04
2018-08-25T04:29:44.083Z,17.07
2018-08-25T04:32:13.485Z,17.05
2018-08-25T04:34:42.992Z,16.94
2018-08-25T04:37:12.597Z,16.71
2018-08-25T04:39:41.998Z,16.91
2018-08-25T04:42:11.399Z,16.95
2018-08-25T04:44:40.904Z,17.05
2018-08-25T04:47:10.410Z,17.14
2018-08-25T04:49:39.913Z,17.11
2018-08-25T04:52:09.275Z,17.21
2018-08-25T04:54:38.866Z,17.23
2018-08-25T04:57:08.325Z,17.10
2018-08-25T04:59:37.773Z,17.10
2018-08-25T05:02:10.301Z,17.05
2018-08-25T05:04:40.829Z,17.21
2018-08-25T05:07:11.257Z,17.19
2018-08-25T05:09:40.862Z,17.13
2018-08-25T05:12:10.264Z,17.17
2018-08-25T05:14:39.669Z,17.13
2018-08-25T05:17:08.964Z,17.21
2018-08-25T05:19:38.367Z,17.18
2018-08-25T05:22:07.823Z,17.28
2018-08-25T05:24:37.269Z,17.28
2018-08-25T05:27:06.521Z,17.31
2018-08-25T05:29:37.313Z,17.32
2018-08-25T05:32:07.215Z,17.01
2018-08-25T05:34:36.625Z,17.06
2018-08-25T05:37:05.921Z,17.11
2018-08-25T05:39:36.306Z,17.29
2018-08-25T05:42:06.057Z,17.78
2018-08-25T05:44:35.282Z,18.45
2018-08-25T05:47:04.778Z,18.52
2018-08-25T05:49:34.264Z,18.51
2018-08-25T05:52:03.765Z,18.62
2018-08-25T05:54:33.377Z,18.44
2018-08-25T05:57:02.980Z,18.28
2018-08-25T05:59:32.203Z,18.04
2018-08-25T06:02:01.890Z,17.86
2018-08-25T06:04:31.296Z,17.87
2018-08-25T06:07:00.519Z,18.13
2018-08-25T06:09:29.854Z,18.29
2018-08-25T06:11:59.393Z,18.24
2018-08-25T06:14:28.794Z,18.14
2018-08-25T06:16:58.300Z,18.26
2018-08-25T06:19:28.827Z,18.24
2018-08-25T06:21:58.334Z,18.38
2018-08-25T06:24:27.734Z,18.56
2018-08-25T06:26:57.115Z,18.80
2018-08-25T06:29:26.612Z,18.90
2018-08-25T06:31:56.146Z,19.04
2018-08-25T06:34:25.649Z,18.81
2018-08-25T06:36:55.256Z,19.01
2018-08-25T06:39:24.660Z,18.79
2018-08-25T06:41:54.167Z,18.50
2018-08-25T06:44:23.419Z,18.36
2018-08-25T06:46:52.752Z,18.38
2018-08-25T06:49:22.161Z,18.45
2018-08-25T06:51:51.560Z,18.12
2018-08-25T06:54:20.920Z,18.03
2018-08-25T06:56:50.473Z,18.03
2018-08-25T06:59:19.752Z,17.98
2018-08-25T07:01:49.273Z,17.85
2018-08-25T07:04:18.732Z,17.83
2018-08-25T07:06:51.859Z,18.24
2018-08-25T07:09:21.370Z,18.20
2018-08-25T07:11:51.170Z,18.46
2018-08-25T07:14:20.650Z,18.59
2018-08-25T07:16:50.293Z,18.38
2018-08-25T07:19:19.903Z,18.44
2018-08-25T07:21:49.201Z,18.18
2018-08-25T07:24:19.810Z,18.54
2018-08-25T07:26:49.335Z,18.34
2018-08-25T07:29:18.626Z,18.39
2018-08-25T07:31:48.141Z,18.39
2018-08-25T07:34:17.644Z,18.52
2018-08-25T07:36:53.600Z,18.44
2018-08-25T07:39:22.999Z,18.27
2018-08-25T07:41:52.506Z,18.28
2018-08-25T07:44:21.906Z,18.42
2018-08-25T07:46:51.412Z,18.71
2018-08-25T07:49:20.916Z,18.89
2018-08-25T07:51:50.521Z,18.63
2018-08-25T07:54:19.922Z,18.36
2018-08-25T07:56:49.324Z,18.50
2018-08-25T07:59:18.875Z,18.39
2018-08-25T08:01:48.336Z,18.30
2018-08-25T08:04:17.735Z,17.98
2018-08-25T08:06:47.242Z,18.17
2018-08-25T08:09:16.747Z,18.02
2018-08-25T08:11:46.211Z,17.89
2018-08-25T08:14:15.672Z,17.96
2018-08-25T08:16:45.159Z,17.99
2018-08-25T08:19:14.659Z,17.83
2018-08-25T08:21:44.167Z,17.84
2018-08-25T08:24:13.569Z,17.84
2018-08-25T08:26:43.098Z,17.77
2018-08-25T08:29:12.576Z,17.66
2018-08-25T08:31:41.976Z,17.70
2018-08-25T08:34:11.461Z,17.92
2018-08-25T08:36:40.707Z,17.92
2018-08-25T08:39:10.634Z,17.79
2018-08-25T08:41:41.019Z,17.37
2018-08-25T08:44:10.627Z,17.06
2018-08-25T08:46:40.028Z,16.84
2018-08-25T08:49:09.839Z,16.60
2018-08-25T08:51:39.447Z,16.30
2018-08-25T08:54:08.949Z,16.34
2018-08-25T08:56:38.455Z,16.44
2018-08-25T08:59:07.922Z,16.29
2018-08-25T09:01:37.368Z,16.29
2018-08-25T09:04:07.684Z,16.29
2018-08-25T09:06:37.289Z,16.39
2018-08-25T09:09:09.924Z,16.42
2018-08-25T09:11:40.638Z,16.17
2018-08-25T09:14:10.105Z,16.28
2018-08-25T09:16:39.610Z,16.58
2018-08-25T09:19:09.012Z,16.52
2018-08-25T09:21:38.292Z,16.63
2018-08-25T09:24:07.817Z,16.50
2018-08-25T09:26:37.220Z,16.47
2018-08-25T09:29:07.203Z,16.43
2018-08-25T09:31:37.042Z,16.60
2018-08-25T09:34:06.307Z,16.56
2018-08-25T09:36:36.873Z,16.69
2018-08-25T09:39:09.965Z,16.85
2018-08-25T09:41:40.600Z,16.79
2018-08-25T09:44:12.350Z,16.79
2018-08-25T09:46:42.179Z,17.20
2018-08-25T09:49:11.457Z,17.07
2018-08-25T09:51:40.965Z,16.73
2018-08-25T09:54:10.572Z,16.47
2018-08-25T09:56:39.807Z,16.24
2018-08-25T09:59:09.374Z,16.12
2018-08-25T10:01:44.105Z,16.09
2018-08-25T10:04:13.503Z,16.24
2018-08-25T10:06:44.135Z,16.36
2018-08-25T10:09:13.612Z,16.75
2018-08-25T10:11:43.143Z,17.03
2018-08-25T10:14:12.547Z,17.20
2018-08-25T10:16:42.051Z,17.70
2018-08-25T10:19:11.449Z,17.39
2018-08-25T10:21:40.903Z,17.43
2018-08-25T10:24:10.666Z,17.50
2018-08-25T10:26:40.272Z,17.15
2018-08-25T10:29:09.813Z,16.84
2018-08-25T10:31:39.283Z,17.15
2018-08-25T10:34:08.685Z,17.31
2018-08-25T10:36:38.093Z,17.65
2018-08-25T10:39:09.620Z,17.64
2018-08-25T10:41:39.302Z,17.91
2018-08-25T10:44:09.072Z,17.86
2018-08-25T10:46:39.687Z,17.93
2018-08-25T10:49:10.318Z,17.85
2018-08-25T10:51:39.867Z,17.87
2018-08-25T10:54:09.601Z,18.21
2018-08-25T10:56:39.035Z,17.60
2018-08-25T10:59:08.489Z,17.10
2018-08-25T11:01:37.937Z,17.03
2018-08-25T11:04:07.307Z,16.89
2018-08-25T11:06:36.788Z,16.66
2018-08-25T11:09:11.088Z,16.82
2018-08-25T11:11:40.462Z,17.59
2018-08-25T11:14:09.962Z,17.59
2018-08-25T11:16:42.645Z,18.27
2018-08-25T11:19:14.095Z,18.73
2018-08-25T11:21:43.599Z,19.17
2018-08-25T11:24:19.657Z,19.66
2018-08-25T11:26:49.266Z,19.56
2018-08-25T11:29:18.805Z,19.51
2018-08-25T11:31:48.580Z,19.26
2018-08-25T11:34:18.091Z,19.14
2018-08-25T11:36:47.795Z,19.35
2018-08-25T11:39:17.295Z,19.13
2018-08-25T11:41:46.640Z,19.29
2018-08-25T11:44:16.108Z,19.07
2018-08-25T11:46:45.502Z,19.30
2018-08-25T11:49:14.962Z,19.83
2018-08-25T11:51:44.412Z,20.06
2018-08-25T11:54:13.716Z,19.91
2018-08-25T11:56:43.113Z,20.41
2018-08-25T11:59:13.640Z,20.46
2018-08-25T12:01:43.144Z,20.15
2018-08-25T12:04:12.752Z,20.12
2018-08-25T12:06:42.202Z,19.80
2018-08-25T12:09:12.989Z,19.89
2018-08-25T12:11:42.493Z,19.88
2018-08-25T12:14:11.958Z,19.71
2018-08-25T12:16:41.706Z,19.34
2018-08-25T12:19:11.105Z,19.37
2018-08-25T12:21:40.716Z,19.18
2018-08-25T12:24:10.284Z,18.26
2018-08-25T12:26:39.825Z,17.46
2018-08-25T12:29:09.432Z,17.13
2018-08-25T12:31:38.937Z,16.95
2018-08-25T12:34:08.404Z,16.86
2018-08-25T12:36:37.896Z,16.83
2018-08-25T12:39:09.728Z,16.36
2018-08-25T12:41:39.209Z,16.34
2018-08-25T12:44:09.430Z,16.49
2018-08-25T12:46:38.884Z,16.69
2018-08-25T12:49:08.539Z,16.65
2018-08-25T12:51:38.172Z,16.83
2018-08-25T12:54:07.665Z,17.09
2018-08-25T12:56:37.360Z,17.53
2018-08-25T12:59:06.837Z,17.37
2018-08-25T13:01:36.345Z,17.65
2018-08-25T13:04:05.875Z,17.36
2018-08-25T13:06:35.480Z,17.37
2018-08-25T13:09:07.160Z,17.17
2018-08-25T13:11:36.738Z,17.30
2018-08-25T13:14:06.454Z,17.28
2018-08-25T13:16:35.959Z,17.13
2018-08-25T13:19:05.765Z,16.86
2018-08-25T13:21:35.271Z,17.01
2018-08-25T13:24:04.671Z,16.94
2018-08-25T13:26:34.075Z,17.23
2018-08-25T13:29:04.193Z,17.32
2018-08-25T13:31:33.492Z,17.40
2018-08-25T13:34:02.806Z,17.32
2018-08-25T13:36:32.082Z,17.33
2018-08-25T13:39:01.711Z,17.44
2018-08-25T13:41:31.304Z,17.35
2018-08-25T13:44:00.810Z,17.44
2018-08-25T13:46:30.096Z,17.66
2018-08-25T13:48:59.511Z,17.58
2018-08-25T13:51:29.118Z,17.81
2018-08-25T13:53:58.943Z,17.67
2018-08-25T13:56:28.847Z,17.79
2018-08-25T13:58:59.579Z,17.59
2018-08-25T14:01:28.979Z,17.68
2018-08-25T14:03:58.381Z,17.98
2018-08-25T14:06:27.707Z,17.79
2018-08-25T14:08:57.389Z,17.80
2018-08-25T14:11:27.156Z,17.69
2018-08-25T14:13:56.604Z,17.54
2018-08-25T14:16:26.319Z,17.61
2018-08-25T14:18:55.922Z,17.39
2018-08-25T14:21:25.292Z,17.60
2018-08-25T14:23:54.788Z,17.77
2018-08-25T14:26:24.433Z,17.88
2018-08-25T14:28:54.899Z,18.23
2018-08-25T14:31:24.567Z,18.52
2018-08-25T14:33:53.963Z,18.94
2018-08-25T14:36:23.610Z,19.33
2018-08-25T14:38:53.285Z,19.32
2018-08-25T14:41:22.791Z,19.24
2018-08-25T14:43:52.243Z,19.24
2018-08-25T14:46:21.816Z,19.37
2018-08-25T14:48:51.405Z,19.24
2018-08-25T14:51:20.909Z,19.00
2018-08-25T14:53:50.311Z,18.80
2018-08-25T14:56:19.814Z,18.80
2018-08-25T14:58:49.322Z,18.90
2018-08-25T15:01:18.824Z,18.92
2018-08-25T15:03:48.225Z,19.45
2018-08-25T15:06:17.689Z,19.29
2018-08-25T15:08:48.079Z,18.94
2018-08-25T15:11:17.663Z,18.99
2018-08-25T15:13:47.164Z,18.80
2018-08-25T15:16:16.669Z,18.81
2018-08-25T15:18:46.176Z,18.91
2018-08-25T15:21:15.575Z,18.72
2018-08-25T15:23:46.412Z,19.12
2018-08-25T15:26:16.018Z,19.03
2018-08-25T15:28:45.834Z,19.35
2018-08-25T15:31:15.340Z,19.39
2018-08-25T15:33:44.840Z,19.38
2018-08-25T15:36:14.344Z,19.48
2018-08-25T15:38:43.952Z,19.75
2018-08-25T15:41:14.373Z,20.05
2018-08-25T15:43:44.057Z,20.24
2018-08-25T15:46:13.648Z,20.27
2018-08-25T15:48:42.991Z,20.07
2018-08-25T15:51:12.456Z,20.22
2018-08-25T15:53:41.999Z,20.21
2018-08-25T15:56:11.464Z,20.02
2018-08-25T15:58:40.738Z,19.96
2018-08-25T16:01:10.206Z,19.81
2018-08-25T16:03:39.605Z,20.00
2018-08-25T16:06:09.043Z,20.11
2018-08-25T16:08:38.820Z,20.21
2018-08-25T16:11:08.430Z,20.28
2018-08-25T16:13:37.900Z,19.97
2018-08-25T16:16:07.439Z,20.01
2018-08-25T16:18:36.757Z,19.88
2018-08-25T16:21:06.323Z,19.76
2018-08-25T16:23:35.846Z,20.08
2018-08-25T16:26:05.451Z,19.92
2018-08-25T16:28:34.854Z,19.84
2018-08-25T16:31:04.366Z,19.36
2018-08-25T16:33:33.801Z,19.35
2018-08-25T16:36:03.163Z,19.35
2018-08-25T16:38:32.876Z,19.09
2018-08-25T16:41:02.247Z,19.04
2018-08-25T16:43:31.676Z,18.86
2018-08-25T16:46:01.079Z,18.62
2018-08-25T16:48:30.530Z,18.50
2018-08-25T16:51:00.087Z,18.70
2018-08-25T16:53:29.463Z,18.95
2018-08-25T16:55:59.011Z,18.52
2018-08-25T16:58:28.497Z,18.15
2018-08-25T17:00:57.899Z,17.92
2018-08-25T17:03:27.699Z,18.03
2018-08-25T17:05:57.141Z,18.22
2018-08-25T17:08:26.720Z,18.35
2018-08-25T17:10:56.224Z,18.32
2018-08-25T17:13:25.727Z,18.38
2018-08-25T17:15:55.027Z,18.52
2018-08-25T17:18:24.329Z,18.24
2018-08-25T17:20:53.821Z,18.36
2018-08-25T17:23:23.233Z,18.48
2018-08-25T17:25:52.637Z,18.63
2018-08-25T17:28:21.935Z,18.67
2018-08-25T17:30:51.441Z,18.48
2018-08-25T17:33:20.921Z,18.47
2018-08-25T17:35:50.346Z,18.53
2018-08-25T17:38:19.956Z,18.52
2018-08-25T17:40:52.633Z,18.53
2018-08-25T17:43:30.942Z,18.46
2018-08-25T17:46:00.425Z,18.59
2018-08-25T17:48:29.854Z,18.55
2018-08-25T17:50:59.325Z,18.47
2018-08-25T17:53:29.064Z,18.55
2018-08-25T17:55:58.567Z,18.54
2018-08-25T17:58:28.387Z,18.79
2018-08-25T18:00:57.986Z,18.30
2018-08-25T18:03:27.390Z,18.37
2018-08-25T18:05:56.882Z,18.46
2018-08-25T18:08:26.311Z,18.34
2018-08-25T18:10:55.806Z,18.31
2018-08-25T18:13:25.130Z,18.25
2018-08-25T18:15:54.498Z,17.97
2018-08-25T18:18:23.899Z,17.92
2018-08-25T18:20:53.231Z,17.83
2018-08-25T18:23:22.744Z,17.58
2018-08-25T18:25:52.311Z,17.17
2018-08-25T18:28:21.880Z,17.36
2018-08-25T18:30:51.593Z,17.44
2018-08-25T18:33:22.140Z,17.32
2018-08-25T18:35:51.863Z,17.16
2018-08-25T18:38:22.341Z,17.17
2018-08-25T18:40:51.691Z,17.32
2018-08-25T18:43:21.148Z,17.02
2018-08-25T18:45:50.496Z,16.91
2018-08-25T18:48:20.034Z,16.97
2018-08-25T18:50:49.606Z,16.88
2018-08-25T18:53:19.008Z,16.79
2018-08-25T18:55:48.614Z,16.74
2018-08-25T18:58:18.016Z,16.35
2018-08-25T19:00:48.546Z,16.28
2018-08-25T19:03:18.025Z,16.27
2018-08-25T19:05:47.556Z,16.29
2018-08-25T19:08:17.007Z,16.22
2018-08-25T19:10:46.467Z,16.21
2018-08-25T19:13:15.860Z,15.83
2018-08-25T19:15:45.470Z,15.91
2018-08-25T19:18:15.895Z,15.69
2018-08-25T19:20:45.378Z,15.79
2018-08-25T19:23:14.925Z,15.70
2018-08-25T19:25:44.409Z,15.69
2018-08-25T19:28:13.811Z,15.73
2018-08-25T19:30:43.421Z,15.63
2018-08-25T19:33:13.025Z,15.50
2018-08-25T19:35:42.529Z,15.48
2018-08-25T19:38:12.139Z,15.24
2018-08-25T19:40:42.054Z,15.45
2018-08-25T19:43:11.456Z,15.32
2018-08-25T19:45:40.893Z,15.29
2018-08-25T19:48:10.359Z,15.34
2018-08-25T19:50:39.963Z,15.51
2018-08-25T19:53:09.505Z,15.30
2018-08-25T19:55:38.869Z,15.24
2018-08-25T19:58:08.327Z,15.09
2018-08-25T20:00:37.776Z,15.07
2018-08-25T20:03:07.280Z,15.18
2018-08-25T20:05:36.960Z,15.09
2018-08-25T20:08:08.552Z,14.92
2018-08-25T20:10:43.279Z,14.98
2018-08-25T20:13:12.877Z,15.05
2018-08-25T20:15:42.795Z,15.21
2018-08-25T20:18:12.089Z,15.27
2018-08-25T20:20:41.627Z,15.29
2018-08-25T20:23:11.100Z,15.21
2018-08-25T20:25:40.605Z,15.10
2018-08-25T20:28:10.070Z,15.03
2018-08-25T20:30:39.643Z,14.90
2018-08-25T20:33:09.024Z,15.00
2018-08-25T20:35:38.472Z,15.12
2018-08-25T20:38:09.017Z,15.16
2018-08-25T20:40:38.350Z,15.17
2018-08-25T20:43:07.963Z,15.09
2018-08-25T20:45:38.503Z,15.14
2018-08-25T20:48:07.984Z,15.04
2018-08-25T20:50:37.437Z,15.10
2018-08-25T20:53:06.890Z,14.97
2018-08-25T20:55:36.310Z,15.07
2018-08-25T20:58:06.206Z,14.96
2018-08-25T21:00:35.616Z,14.97
2018-08-25T21:03:04.967Z,14.97
2018-08-25T21:05:34.615Z,14.92
2018-08-25T21:08:04.023Z,14.91
2018-08-25T21:10:33.420Z,14.88
2018-08-25T21:13:02.924Z,14.86
2018-08-25T21:15:32.227Z,14.80
2018-08-25T21:18:01.626Z,14.79
2018-08-25T21:20:31.135Z,14.70
2018-08-25T21:23:00.607Z,14.60
2018-08-25T21:25:30.242Z,14.52
2018-08-25T21:27:59.848Z,14.55
2018-08-25T21:30:29.317Z,14.63
2018-08-25T21:32:58.834Z,14.73
2018-08-25T21:35:28.258Z,14.22
2018-08-25T21:37:57.662Z,14.18
2018-08-25T21:40:27.394Z,14.06
2018-08-25T21:42:56.980Z,14.16
2018-08-25T21:45:26.480Z,13.96
2018-08-25T21:47:55.984Z,13.93
2018-08-25T21:50:25.468Z,13.84
2018-08-25T21:52:54.993Z,13.81
2018-08-25T21:55:24.702Z,13.71
2018-08-25T21:57:54.206Z,13.66
2018-08-25T22:00:23.683Z,13.62
2018-08-25T22:02:53.216Z,13.50
2018-08-25T22:05:22.693Z,13.38
2018-08-25T22:07:52.221Z,13.44
2018-08-25T22:10:21.697Z,13.46
2018-08-25T22:12:51.240Z,13.30
2018-08-25T22:15:20.678Z,13.57
2018-08-25T22:17:50.015Z,13.60
2018-08-25T22:20:19.746Z,13.49
2018-08-25T22:22:49.226Z,13.55
2018-08-25T22:25:18.653Z,13.52
2018-08-25T22:27:48.158Z,13.34
2018-08-25T22:30:17.663Z,13.41
2018-08-25T22:32:47.113Z,13.49
2018-08-25T22:35:16.567Z,13.70
2018-08-25T22:37:46.175Z,13.78
2018-08-25T22:40:15.638Z,13.62
2018-08-25T22:42:45.187Z,13.63
2018-08-25T22:45:14.643Z,13.79
2018-08-25T22:47:44.192Z,13.76
2018-08-25T22:50:13.697Z,13.76
2018-08-25T22:52:48.424Z,13.69
2018-08-25T22:55:18.644Z,13.82
2018-08-25T22:57:48.238Z,13.80
2018-08-25T23:00:17.857Z,13.76
2018-08-25T23:02:47.229Z,13.73
2018-08-25T23:05:16.865Z,13.67
2018-08-25T23:07:46.267Z,13.55
2018-08-25T23:10:15.751Z,13.71
2018-08-25T23:12:45.135Z,13.70
2018-08-25T23:15:14.435Z,13.64
2018-08-25T23:17:43.751Z,13.61
2018-08-25T23:20:13.117Z,13.44
2018-08-25T23:22:42.451Z,13.58
2018-08-25T23:25:11.721Z,13.60
2018-08-25T23:27:41.277Z,13.32
2018-08-25T23:30:10.739Z,13.47
2018-08-25T23:32:40.372Z,13.44
2018-08-25T23:35:09.738Z,13.37
2018-08-25T23:37:39.298Z,13.29
2018-08-25T23:40:09.003Z,13.40
2018-08-25T23:42:38.506Z,13.38
2018-08-25T23:45:08.114Z,13.22
2018-08-25T23:47:37.568Z,13.15
2018-08-25T23:50:07.123Z,13.25
2018-08-25T23:52:37.995Z,13.32
2018-08-25T23:55:08.691Z,13.33
2018-08-25T23:57:38.298Z,13.31
